sensor_id;sensor_type;location;lat;lon;timestamp;P1;durP1;ratioP1;P2;durP2;ratioP2
67675;SDS011;54456;48.436;10.028;2022-09-17T06:38:44;7.55;;;2.60;;
67675;SDS011;54456;48.436;10.028;2022-09-17T06:40:14;8.25;;;2.97;;
67675;SDS011;54456;48.436;10.028;2022-09-17T06:41:44;9.70;;;2.57;;
67675;SDS011;54456;48.436;10.028;2022-09-17T06:43:15;8.15;;;2.58;;
67675;SDS011;54456;48.436;10.028;2022-09-17T06:44:45;6.77;;;2.40;;
67675;SDS011;54456;48.436;10.028;2022-09-17T06:46:15;7.57;;;2.57;;
67675;SDS011;54456;48.436;10.028;2022-09-17T06:47:46;7.20;;;2.30;;
67675;SDS011;54456;48.436;10.028;2022-09-17T06:51:06;9.50;;;2.20;;
67675;SDS011;54456;48.436;10.028;2022-09-17T06:52:37;8.00;;;2.33;;
67675;SDS011;54456;48.436;10.028;2022-09-17T06:54:07;6.90;;;2.10;;
67675;SDS011;54456;48.436;10.028;2022-09-17T06:55:38;7.00;;;2.30;;
67675;SDS011;54456;48.436;10.028;2022-09-17T06:57:08;7.87;;;2.37;;
67675;SDS011;54456;48.436;10.028;2022-09-17T06:58:39;10.13;;;2.10;;
67675;SDS011;54456;48.436;10.028;2022-09-17T07:00:13;7.15;;;2.10;;
67675;SDS011;54456;48.436;10.028;2022-09-17T07:01:44;7.78;;;2.20;;
67675;SDS011;54456;48.436;10.028;2022-09-17T07:03:14;8.20;;;2.28;;
67675;SDS011;54456;48.436;10.028;2022-09-17T07:04:45;9.35;;;2.30;;
67675;SDS011;54456;48.436;10.028;2022-09-17T07:06:15;8.47;;;2.17;;
67675;SDS011;54456;48.436;10.028;2022-09-17T07:07:46;8.40;;;2.10;;
67675;SDS011;54456;48.436;10.028;2022-09-17T07:09:16;6.37;;;2.30;;
67675;SDS011;54456;48.436;10.028;2022-09-17T07:10:46;8.07;;;2.13;;
67675;SDS011;54456;48.436;10.028;2022-09-17T07:12:17;8.30;;;2.00;;
67675;SDS011;54456;48.436;10.028;2022-09-17T07:13:47;6.10;;;1.80;;
67675;SDS011;54456;48.436;10.028;2022-09-17T07:15:17;10.20;;;2.13;;
67675;SDS011;54456;48.436;10.028;2022-09-17T07:17:18;9.00;;;2.63;;
67675;SDS011;54456;48.436;10.028;2022-09-17T07:18:49;11.98;;;2.30;;
67675;SDS011;54456;48.436;10.028;2022-09-17T07:20:19;10.17;;;2.20;;
67675;SDS011;54456;48.436;10.028;2022-09-17T07:21:49;5.82;;;2.00;;
67675;SDS011;54456;48.436;10.028;2022-09-17T07:23:23;6.20;;;1.80;;
67675;SDS011;54456;48.436;10.028;2022-09-17T07:24:55;8.90;;;3.50;;
67675;SDS011;54456;48.436;10.028;2022-09-17T07:33:29;10.52;;;2.10;;
67675;SDS011;54456;48.436;10.028;2022-09-17T07:34:59;10.32;;;5.43;;
67675;SDS011;54456;48.436;10.028;2022-09-17T07:40:38;7.93;;;2.10;;
67675;SDS011;54456;48.436;10.028;2022-09-17T07:45:31;7.18;;;1.80;;
67675;SDS011;54456;48.436;10.028;2022-09-17T07:47:02;9.48;;;2.20;;
67675;SDS011;54456;48.436;10.028;2022-09-17T07:48:32;10.27;;;2.38;;
67675;SDS011;54456;48.436;10.028;2022-09-17T07:50:03;7.95;;;2.28;;
67675;SDS011;54456;48.436;10.028;2022-09-17T07:51:37;8.18;;;2.30;;
67675;SDS011;54456;48.436;10.028;2022-09-17T07:53:07;7.63;;;2.13;;
67675;SDS011;54456;48.436;10.028;2022-09-17T07:54:37;7.77;;;2.27;;
67675;SDS011;54456;48.436;10.028;2022-09-17T07:56:08;5.65;;;3.38;;
67675;SDS011;54456;48.436;10.028;2022-09-17T08:21:34;6.20;;;1.80;;
67675;SDS011;54456;48.436;10.028;2022-09-17T08:23:05;6.78;;;1.90;;
67675;SDS011;54456;48.436;10.028;2022-09-17T08:24:35;8.53;;;1.80;;
67675;SDS011;54456;48.436;10.028;2022-09-17T08:30:29;5.40;;;1.80;;
67675;SDS011;54456;48.436;10.028;2022-09-17T08:32:01;6.75;;;2.20;;
67675;SDS011;54456;48.436;10.028;2022-09-17T08:33:32;6.13;;;1.95;;
67675;SDS011;54456;48.436;10.028;2022-09-17T08:35:07;8.10;;;2.17;;
67675;SDS011;54456;48.436;10.028;2022-09-17T08:36:37;7.28;;;2.10;;
67675;SDS011;54456;48.436;10.028;2022-09-17T08:38:08;8.60;;;2.40;;
67675;SDS011;54456;48.436;10.028;2022-09-17T08:39:38;6.33;;;2.20;;
67675;SDS011;54456;48.436;10.028;2022-09-17T08:41:15;7.70;;;2.20;;
67675;SDS011;54456;48.436;10.028;2022-09-17T08:42:50;7.53;;;2.00;;
67675;SDS011;54456;48.436;10.028;2022-09-17T08:44:29;8.50;;;2.40;;
67675;SDS011;54456;48.436;10.028;2022-09-17T08:46:03;7.30;;;2.35;;
67675;SDS011;54456;48.436;10.028;2022-09-17T08:47:34;6.93;;;1.88;;
67675;SDS011;54456;48.436;10.028;2022-09-17T08:50:44;5.65;;;2.42;;
67675;SDS011;54456;48.436;10.028;2022-09-17T08:56:08;8.18;;;2.50;;
67675;SDS011;54456;48.436;10.028;2022-09-17T08:57:49;9.52;;;2.67;;
67675;SDS011;54456;48.436;10.028;2022-09-17T09:00:09;5.95;;;2.10;;
67675;SDS011;54456;48.436;10.028;2022-09-17T09:03:38;5.03;;;1.90;;
67675;SDS011;54456;48.436;10.028;2022-09-17T09:05:14;7.07;;;1.98;;
67675;SDS011;54456;48.436;10.028;2022-09-17T09:07:10;5.85;;;2.20;;
67675;SDS011;54456;48.436;10.028;2022-09-17T09:10:41;6.40;;;1.92;;
67675;SDS011;54456;48.436;10.028;2022-09-17T09:12:23;6.68;;;2.00;;
67675;SDS011;54456;48.436;10.028;2022-09-17T09:17:21;7.97;;;2.10;;
67675;SDS011;54456;48.436;10.028;2022-09-17T09:18:55;4.10;;;1.73;;
67675;SDS011;54456;48.436;10.028;2022-09-17T09:20:41;7.50;;;2.00;;
67675;SDS011;54456;48.436;10.028;2022-09-17T09:24:44;3.33;;;1.13;;
67675;SDS011;54456;48.436;10.028;2022-09-17T09:26:21;2.80;;;1.00;;
67675;SDS011;54456;48.436;10.028;2022-09-17T09:30:08;1.60;;;0.93;;
67675;SDS011;54456;48.436;10.028;2022-09-17T09:33:28;2.67;;;0.90;;
67675;SDS011;54456;48.436;10.028;2022-09-17T09:35:01;2.08;;;0.93;;
67675;SDS011;54456;48.436;10.028;2022-09-17T09:36:41;2.65;;;1.20;;
67675;SDS011;54456;48.436;10.028;2022-09-17T09:38:21;1.80;;;1.00;;
67675;SDS011;54456;48.436;10.028;2022-09-17T09:40:02;2.60;;;1.17;;
67675;SDS011;54456;48.436;10.028;2022-09-17T09:41:52;2.50;;;1.20;;
67675;SDS011;54456;48.436;10.028;2022-09-17T09:43:32;2.22;;;1.15;;
67675;SDS011;54456;48.436;10.028;2022-09-17T09:45:12;1.92;;;1.10;;
67675;SDS011;54456;48.436;10.028;2022-09-17T09:48:55;2.00;;;1.00;;
67675;SDS011;54456;48.436;10.028;2022-09-17T09:54:08;1.90;;;1.10;;
67675;SDS011;54456;48.436;10.028;2022-09-17T09:57:47;3.30;;;1.35;;
67675;SDS011;54456;48.436;10.028;2022-09-17T09:59:19;4.28;;;1.27;;
67675;SDS011;54456;48.436;10.028;2022-09-17T10:00:50;4.10;;;1.60;;
67675;SDS011;54456;48.436;10.028;2022-09-17T10:02:20;6.25;;;1.58;;
67675;SDS011;54456;48.436;10.028;2022-09-17T10:03:52;3.47;;;1.30;;
67675;SDS011;54456;48.436;10.028;2022-09-17T10:05:23;4.38;;;1.40;;
67675;SDS011;54456;48.436;10.028;2022-09-17T10:06:54;3.42;;;1.30;;
67675;SDS011;54456;48.436;10.028;2022-09-17T10:08:33;3.75;;;1.25;;
67675;SDS011;54456;48.436;10.028;2022-09-17T10:10:08;3.38;;;1.35;;
67675;SDS011;54456;48.436;10.028;2022-09-17T10:13:09;3.67;;;1.40;;
67675;SDS011;54456;48.436;10.028;2022-09-17T10:17:45;3.53;;;1.33;;
67675;SDS011;54456;48.436;10.028;2022-09-17T10:19:19;4.95;;;1.60;;
67675;SDS011;54456;48.436;10.028;2022-09-17T10:20:55;6.65;;;1.58;;
67675;SDS011;54456;48.436;10.028;2022-09-17T10:22:32;7.82;;;1.77;;
67675;SDS011;54456;48.436;10.028;2022-09-17T10:24:08;5.47;;;1.73;;
67675;SDS011;54456;48.436;10.028;2022-09-17T10:26:00;8.18;;;2.03;;
67675;SDS011;54456;48.436;10.028;2022-09-17T10:27:34;8.70;;;2.15;;
67675;SDS011;54456;48.436;10.028;2022-09-17T10:29:10;9.30;;;2.40;;
67675;SDS011;54456;48.436;10.028;2022-09-17T10:30:53;8.35;;;2.33;;
67675;SDS011;54456;48.436;10.028;2022-09-17T10:32:25;7.57;;;2.42;;
67675;SDS011;54456;48.436;10.028;2022-09-17T10:34:00;8.23;;;2.60;;
67675;SDS011;54456;48.436;10.028;2022-09-17T10:35:31;7.88;;;2.50;;
67675;SDS011;54456;48.436;10.028;2022-09-17T10:37:02;8.48;;;2.30;;
67675;SDS011;54456;48.436;10.028;2022-09-17T10:38:33;6.67;;;2.17;;
67675;SDS011;54456;48.436;10.028;2022-09-17T10:41:53;6.20;;;2.08;;
67675;SDS011;54456;48.436;10.028;2022-09-17T10:44:55;8.13;;;2.40;;
67675;SDS011;54456;48.436;10.028;2022-09-17T10:46:28;6.35;;;1.85;;
67675;SDS011;54456;48.436;10.028;2022-09-17T10:47:59;5.40;;;1.80;;
67675;SDS011;54456;48.436;10.028;2022-09-17T10:49:37;5.32;;;2.22;;
67675;SDS011;54456;48.436;10.028;2022-09-17T10:51:18;7.05;;;2.15;;
67675;SDS011;54456;48.436;10.028;2022-09-17T10:52:53;10.70;;;2.60;;
67675;SDS011;54456;48.436;10.028;2022-09-17T10:54:29;9.77;;;2.42;;
67675;SDS011;54456;48.436;10.028;2022-09-17T10:56:28;9.15;;;2.50;;
67675;SDS011;54456;48.436;10.028;2022-09-17T11:01:14;7.22;;;2.22;;
67675;SDS011;54456;48.436;10.028;2022-09-17T11:11:40;7.70;;;2.40;;
67675;SDS011;54456;48.436;10.028;2022-09-17T11:28:32;5.75;;;1.63;;
67675;SDS011;54456;48.436;10.028;2022-09-17T11:30:21;5.22;;;1.75;;
67675;SDS011;54456;48.436;10.028;2022-09-17T11:35:15;5.38;;;1.63;;
67675;SDS011;54456;48.436;10.028;2022-09-17T11:38:26;4.82;;;1.42;;
67675;SDS011;54456;48.436;10.028;2022-09-17T11:40:02;3.67;;;1.40;;
67675;SDS011;54456;48.436;10.028;2022-09-17T11:41:36;3.40;;;1.55;;
67675;SDS011;54456;48.436;10.028;2022-09-17T11:44:58;4.30;;;1.48;;
67675;SDS011;54456;48.436;10.028;2022-09-17T11:46:45;4.90;;;1.55;;
67675;SDS011;54456;48.436;10.028;2022-09-17T11:48:19;4.10;;;1.50;;
67675;SDS011;54456;48.436;10.028;2022-09-17T11:49:55;6.95;;;1.70;;
67675;SDS011;54456;48.436;10.028;2022-09-17T11:55:48;5.05;;;1.80;;
67675;SDS011;54456;48.436;10.028;2022-09-17T11:57:21;3.70;;;2.33;;
67675;SDS011;54456;48.436;10.028;2022-09-17T12:00:34;4.90;;;1.50;;
67675;SDS011;54456;48.436;10.028;2022-09-17T12:06:08;5.28;;;1.50;;
67675;SDS011;54456;48.436;10.028;2022-09-17T12:09:34;5.40;;;1.42;;
67675;SDS011;54456;48.436;10.028;2022-09-17T12:11:08;3.60;;;1.25;;
67675;SDS011;54456;48.436;10.028;2022-09-17T12:12:44;5.80;;;1.55;;
67675;SDS011;54456;48.436;10.028;2022-09-17T12:19:54;3.20;;;1.42;;
67675;SDS011;54456;48.436;10.028;2022-09-17T12:21:29;5.07;;;1.70;;
67675;SDS011;54456;48.436;10.028;2022-09-17T12:23:08;6.25;;;1.65;;
67675;SDS011;54456;48.436;10.028;2022-09-17T12:24:40;4.57;;;1.52;;
67675;SDS011;54456;48.436;10.028;2022-09-17T12:28:22;6.40;;;1.63;;
67675;SDS011;54456;48.436;10.028;2022-09-17T12:37:03;6.63;;;2.10;;
67675;SDS011;54456;48.436;10.028;2022-09-17T12:38:46;6.60;;;1.55;;
67675;SDS011;54456;48.436;10.028;2022-09-17T12:42:25;10.50;;;1.95;;
67675;SDS011;54456;48.436;10.028;2022-09-17T12:59:31;6.65;;;1.63;;
67675;SDS011;54456;48.436;10.028;2022-09-17T13:01:09;4.47;;;1.52;;
67675;SDS011;54456;48.436;10.028;2022-09-17T13:06:33;4.70;;;1.60;;
67675;SDS011;54456;48.436;10.028;2022-09-17T13:13:48;1.17;;;0.80;;
67675;SDS011;54456;48.436;10.028;2022-09-17T13:22:17;2.65;;;1.10;;
67675;SDS011;54456;48.436;10.028;2022-09-17T13:23:48;2.47;;;1.05;;
67675;SDS011;54456;48.436;10.028;2022-09-17T13:25:20;2.65;;;1.15;;
67675;SDS011;54456;48.436;10.028;2022-09-17T13:26:51;2.03;;;1.10;;
67675;SDS011;54456;48.436;10.028;2022-09-17T13:28:23;1.73;;;1.30;;
67675;SDS011;54456;48.436;10.028;2022-09-17T13:30:10;6.53;;;2.55;;
67675;SDS011;54456;48.436;10.028;2022-09-17T13:31:45;12.20;;;3.20;;
67675;SDS011;54456;48.436;10.028;2022-09-17T13:36:54;5.10;;;1.70;;
67675;SDS011;54456;48.436;10.028;2022-09-17T13:38:26;5.40;;;1.60;;
67675;SDS011;54456;48.436;10.028;2022-09-17T13:40:19;6.10;;;2.13;;
67675;SDS011;54456;48.436;10.028;2022-09-17T13:42:04;4.18;;;1.90;;
67675;SDS011;54456;48.436;10.028;2022-09-17T13:43:37;6.22;;;2.10;;
67675;SDS011;54456;48.436;10.028;2022-09-17T13:45:15;7.22;;;2.47;;
67675;SDS011;54456;48.436;10.028;2022-09-17T13:46:46;6.88;;;1.98;;
67675;SDS011;54456;48.436;10.028;2022-09-17T13:48:18;7.07;;;2.20;;
67675;SDS011;54456;48.436;10.028;2022-09-17T13:50:09;6.75;;;2.30;;
67675;SDS011;54456;48.436;10.028;2022-09-17T13:51:42;5.50;;;2.03;;
67675;SDS011;54456;48.436;10.028;2022-09-17T13:54:44;5.90;;;2.03;;
67675;SDS011;54456;48.436;10.028;2022-09-17T13:56:27;4.85;;;1.88;;
67675;SDS011;54456;48.436;10.028;2022-09-17T13:58:01;6.25;;;2.00;;
67675;SDS011;54456;48.436;10.028;2022-09-17T13:59:33;5.72;;;1.67;;
67675;SDS011;54456;48.436;10.028;2022-09-17T14:01:06;5.15;;;1.95;;
67675;SDS011;54456;48.436;10.028;2022-09-17T14:02:40;8.38;;;2.30;;
67675;SDS011;54456;48.436;10.028;2022-09-17T14:04:30;6.55;;;1.92;;
67675;SDS011;54456;48.436;10.028;2022-09-17T14:07:51;5.50;;;2.05;;
67675;SDS011;54456;48.436;10.028;2022-09-17T14:09:48;7.90;;;2.03;;
67675;SDS011;54456;48.436;10.028;2022-09-17T14:14:38;5.80;;;2.17;;
67675;SDS011;54456;48.436;10.028;2022-09-17T14:16:32;6.25;;;1.90;;
67675;SDS011;54456;48.436;10.028;2022-09-17T14:19:57;4.15;;;1.73;;
67675;SDS011;54456;48.436;10.028;2022-09-17T14:21:29;6.57;;;2.03;;
67675;SDS011;54456;48.436;10.028;2022-09-17T14:23:00;4.68;;;1.90;;
67675;SDS011;54456;48.436;10.028;2022-09-17T14:26:13;5.40;;;2.55;;
67675;SDS011;54456;48.436;10.028;2022-09-17T14:28:02;5.38;;;2.13;;
67675;SDS011;54456;48.436;10.028;2022-09-17T14:31:36;5.63;;;2.22;;
67675;SDS011;54456;48.436;10.028;2022-09-17T14:34:47;5.13;;;1.90;;
67675;SDS011;54456;48.436;10.028;2022-09-17T14:36:19;5.72;;;1.70;;
67675;SDS011;54456;48.436;10.028;2022-09-17T14:37:54;3.35;;;1.60;;
67675;SDS011;54456;48.436;10.028;2022-09-17T14:39:45;5.22;;;1.60;;
67675;SDS011;54456;48.436;10.028;2022-09-17T14:41:24;4.60;;;1.50;;
67675;SDS011;54456;48.436;10.028;2022-09-17T14:42:56;3.40;;;1.45;;
67675;SDS011;54456;48.436;10.028;2022-09-17T14:44:27;2.95;;;1.38;;
67675;SDS011;54456;48.436;10.028;2022-09-17T14:46:02;3.75;;;1.38;;
67675;SDS011;54456;48.436;10.028;2022-09-17T14:47:34;2.72;;;1.10;;
67675;SDS011;54456;48.436;10.028;2022-09-17T14:52:46;2.25;;;1.20;;
67675;SDS011;54456;48.436;10.028;2022-09-17T14:54:27;2.60;;;1.02;;
67675;SDS011;54456;48.436;10.028;2022-09-17T14:56:01;3.42;;;1.48;;
67675;SDS011;54456;48.436;10.028;2022-09-17T14:57:31;1.90;;;1.13;;
67675;SDS011;54456;48.436;10.028;2022-09-17T14:59:02;2.92;;;1.20;;
67675;SDS011;54456;48.436;10.028;2022-09-17T15:00:35;2.70;;;1.30;;
67675;SDS011;54456;48.436;10.028;2022-09-17T15:05:46;2.22;;;1.20;;
67675;SDS011;54456;48.436;10.028;2022-09-17T15:07:19;2.10;;;1.23;;
67675;SDS011;54456;48.436;10.028;2022-09-17T15:08:50;1.60;;;1.05;;
67675;SDS011;54456;48.436;10.028;2022-09-17T15:10:26;1.85;;;1.35;;
67675;SDS011;54456;48.436;10.028;2022-09-17T15:11:57;2.50;;;1.15;;
67675;SDS011;54456;48.436;10.028;2022-09-17T15:13:29;2.95;;;1.30;;
67675;SDS011;54456;48.436;10.028;2022-09-17T15:15:01;3.80;;;1.50;;
67675;SDS011;54456;48.436;10.028;2022-09-17T15:16:32;2.75;;;1.30;;
67675;SDS011;54456;48.436;10.028;2022-09-17T15:18:03;3.88;;;1.27;;
67675;SDS011;54456;48.436;10.028;2022-09-17T15:19:37;2.50;;;1.30;;
67675;SDS011;54456;48.436;10.028;2022-09-17T15:21:12;3.33;;;1.73;;
67675;SDS011;54456;48.436;10.028;2022-09-17T15:23:23;3.65;;;2.00;;
67675;SDS011;54456;48.436;10.028;2022-09-17T15:25:03;3.75;;;1.40;;
67675;SDS011;54456;48.436;10.028;2022-09-17T15:26:55;3.70;;;1.73;;
67675;SDS011;54456;48.436;10.028;2022-09-17T15:28:40;3.65;;;1.58;;
67675;SDS011;54456;48.436;10.028;2022-09-17T15:31:44;3.40;;;1.60;;
67675;SDS011;54456;48.436;10.028;2022-09-17T15:33:14;4.85;;;1.70;;
67675;SDS011;54456;48.436;10.028;2022-09-17T15:36:40;3.70;;;1.52;;
67675;SDS011;54456;48.436;10.028;2022-09-17T15:38:35;3.92;;;1.60;;
67675;SDS011;54456;48.436;10.028;2022-09-17T15:40:11;3.80;;;1.60;;
67675;SDS011;54456;48.436;10.028;2022-09-17T15:41:43;3.45;;;1.40;;
67675;SDS011;54456;48.436;10.028;2022-09-17T15:43:26;4.47;;;1.55;;
67675;SDS011;54456;48.436;10.028;2022-09-17T15:45:06;5.10;;;1.95;;
67675;SDS011;54456;48.436;10.028;2022-09-17T15:46:49;4.85;;;1.83;;
67675;SDS011;54456;48.436;10.028;2022-09-17T15:50:03;4.45;;;1.88;;
67675;SDS011;54456;48.436;10.028;2022-09-17T15:51:37;3.90;;;1.58;;
67675;SDS011;54456;48.436;10.028;2022-09-17T15:54:41;6.35;;;1.85;;
67675;SDS011;54456;48.436;10.028;2022-09-17T15:57:42;4.90;;;2.03;;
67675;SDS011;54456;48.436;10.028;2022-09-17T16:02:43;7.05;;;1.85;;
67675;SDS011;54456;48.436;10.028;2022-09-17T16:04:32;7.60;;;2.75;;
67675;SDS011;54456;48.436;10.028;2022-09-17T16:07:48;4.47;;;1.98;;
67675;SDS011;54456;48.436;10.028;2022-09-17T16:09:36;6.93;;;2.20;;
67675;SDS011;54456;48.436;10.028;2022-09-17T16:11:12;6.28;;;2.10;;
67675;SDS011;54456;48.436;10.028;2022-09-17T16:12:43;3.97;;;1.80;;
67675;SDS011;54456;48.436;10.028;2022-09-17T16:14:13;7.07;;;1.98;;
67675;SDS011;54456;48.436;10.028;2022-09-17T16:15:44;4.72;;;1.98;;
67675;SDS011;54456;48.436;10.028;2022-09-17T16:18:51;4.72;;;1.83;;
67675;SDS011;54456;48.436;10.028;2022-09-17T16:20:23;5.60;;;2.03;;
67675;SDS011;54456;48.436;10.028;2022-09-17T16:21:54;5.38;;;2.00;;
67675;SDS011;54456;48.436;10.028;2022-09-17T16:23:25;5.70;;;1.90;;
67675;SDS011;54456;48.436;10.028;2022-09-17T16:24:58;5.13;;;2.20;;
67675;SDS011;54456;48.436;10.028;2022-09-17T16:26:32;5.05;;;2.00;;
67675;SDS011;54456;48.436;10.028;2022-09-17T16:28:17;6.95;;;2.55;;
67675;SDS011;54456;48.436;10.028;2022-09-17T16:29:49;5.47;;;1.88;;
67675;SDS011;54456;48.436;10.028;2022-09-17T16:31:20;6.70;;;2.10;;
67675;SDS011;54456;48.436;10.028;2022-09-17T16:32:50;5.63;;;2.33;;
67675;SDS011;54456;48.436;10.028;2022-09-17T16:34:21;8.10;;;2.10;;
67675;SDS011;54456;48.436;10.028;2022-09-17T16:35:55;5.55;;;1.92;;
67675;SDS011;54456;48.436;10.028;2022-09-17T16:37:26;5.47;;;2.20;;
67675;SDS011;54456;48.436;10.028;2022-09-17T16:38:59;6.10;;;2.03;;
67675;SDS011;54456;48.436;10.028;2022-09-17T16:40:30;6.63;;;2.63;;
67675;SDS011;54456;48.436;10.028;2022-09-17T16:42:00;6.53;;;2.27;;
67675;SDS011;54456;48.436;10.028;2022-09-17T16:43:31;4.57;;;2.10;;
67675;SDS011;54456;48.436;10.028;2022-09-17T16:45:02;6.25;;;1.95;;
67675;SDS011;54456;48.436;10.028;2022-09-17T16:46:34;5.25;;;2.00;;
67675;SDS011;54456;48.436;10.028;2022-09-17T16:48:04;5.37;;;2.10;;
67675;SDS011;54456;48.436;10.028;2022-09-17T16:49:35;6.40;;;1.85;;
67675;SDS011;54456;48.436;10.028;2022-09-17T16:51:06;4.90;;;1.73;;
67675;SDS011;54456;48.436;10.028;2022-09-17T16:52:37;5.05;;;1.80;;
67675;SDS011;54456;48.436;10.028;2022-09-17T16:54:08;4.45;;;1.90;;
67675;SDS011;54456;48.436;10.028;2022-09-17T16:55:38;4.80;;;2.03;;
67675;SDS011;54456;48.436;10.028;2022-09-17T16:57:08;8.82;;;2.45;;
67675;SDS011;54456;48.436;10.028;2022-09-17T16:58:39;11.13;;;3.77;;
67675;SDS011;54456;48.436;10.028;2022-09-17T17:00:11;29.13;;;5.70;;
67675;SDS011;54456;48.436;10.028;2022-09-17T17:01:45;7.50;;;2.65;;
67675;SDS011;54456;48.436;10.028;2022-09-17T17:03:19;6.15;;;1.92;;
67675;SDS011;54456;48.436;10.028;2022-09-17T17:04:49;31.90;;;9.40;;
67675;SDS011;54456;48.436;10.028;2022-09-17T17:06:20;40.03;;;14.93;;
67675;SDS011;54456;48.436;10.028;2022-09-17T17:07:50;71.82;;;32.90;;
67675;SDS011;54456;48.436;10.028;2022-09-17T17:09:21;35.85;;;15.40;;
67675;SDS011;54456;48.436;10.028;2022-09-17T17:10:51;8.00;;;2.53;;
67675;SDS011;54456;48.436;10.028;2022-09-17T17:12:22;7.68;;;2.60;;
67675;SDS011;54456;48.436;10.028;2022-09-17T17:13:55;6.60;;;2.10;;
67675;SDS011;54456;48.436;10.028;2022-09-17T17:15:25;7.20;;;1.90;;
67675;SDS011;54456;48.436;10.028;2022-09-17T17:16:56;5.28;;;2.15;;
67675;SDS011;54456;48.436;10.028;2022-09-17T17:18:26;5.75;;;2.10;;
67675;SDS011;54456;48.436;10.028;2022-09-17T17:19:56;6.27;;;2.10;;
67675;SDS011;54456;48.436;10.028;2022-09-17T17:21:27;6.20;;;2.22;;
67675;SDS011;54456;48.436;10.028;2022-09-17T17:22:57;7.25;;;2.30;;
67675;SDS011;54456;48.436;10.028;2022-09-17T17:24:27;6.10;;;2.00;;
67675;SDS011;54456;48.436;10.028;2022-09-17T17:25:58;6.35;;;2.25;;
67675;SDS011;54456;48.436;10.028;2022-09-17T17:27:28;6.68;;;2.13;;
67675;SDS011;54456;48.436;10.028;2022-09-17T17:28:59;7.50;;;2.30;;
67675;SDS011;54456;48.436;10.028;2022-09-17T17:30:31;7.38;;;2.40;;
67675;SDS011;54456;48.436;10.028;2022-09-17T17:32:02;6.07;;;2.50;;
67675;SDS011;54456;48.436;10.028;2022-09-17T17:33:33;7.50;;;2.30;;
67675;SDS011;54456;48.436;10.028;2022-09-17T17:35:04;8.55;;;3.20;;
67675;SDS011;54456;48.436;10.028;2022-09-17T17:36:35;6.95;;;2.45;;
67675;SDS011;54456;48.436;10.028;2022-09-17T17:38:05;6.10;;;2.33;;
67675;SDS011;54456;48.436;10.028;2022-09-17T17:39:36;6.40;;;2.30;;
67675;SDS011;54456;48.436;10.028;2022-09-17T17:41:10;6.90;;;2.38;;
67675;SDS011;54456;48.436;10.028;2022-09-17T17:42:42;7.85;;;2.30;;
67675;SDS011;54456;48.436;10.028;2022-09-17T17:44:13;6.85;;;2.50;;
67675;SDS011;54456;48.436;10.028;2022-09-17T17:45:43;9.02;;;3.13;;
67675;SDS011;54456;48.436;10.028;2022-09-17T17:47:14;6.05;;;2.50;;
67675;SDS011;54456;48.436;10.028;2022-09-17T17:48:44;7.32;;;2.50;;
67675;SDS011;54456;48.436;10.028;2022-09-17T17:50:15;6.60;;;2.50;;
67675;SDS011;54456;48.436;10.028;2022-09-17T17:51:46;6.28;;;2.30;;
67675;SDS011;54456;48.436;10.028;2022-09-17T17:53:17;4.90;;;2.10;;
67675;SDS011;54456;48.436;10.028;2022-09-17T17:54:47;8.15;;;2.63;;
67675;SDS011;54456;48.436;10.028;2022-09-17T17:56:18;7.53;;;2.40;;
67675;SDS011;54456;48.436;10.028;2022-09-17T17:57:58;6.70;;;2.80;;
67675;SDS011;54456;48.436;10.028;2022-09-17T17:59:28;7.18;;;2.45;;
67675;SDS011;54456;48.436;10.028;2022-09-17T18:00:59;10.60;;;2.30;;
67675;SDS011;54456;48.436;10.028;2022-09-17T18:02:29;6.18;;;2.30;;
67675;SDS011;54456;48.436;10.028;2022-09-17T18:04:00;8.27;;;2.60;;
67675;SDS011;54456;48.436;10.028;2022-09-17T18:05:32;5.47;;;2.30;;
67675;SDS011;54456;48.436;10.028;2022-09-17T18:07:03;7.85;;;2.40;;
67675;SDS011;54456;48.436;10.028;2022-09-17T18:08:40;6.80;;;2.28;;
67675;SDS011;54456;48.436;10.028;2022-09-17T18:10:12;6.28;;;2.75;;
67675;SDS011;54456;48.436;10.028;2022-09-17T18:11:43;7.68;;;2.65;;
67675;SDS011;54456;48.436;10.028;2022-09-17T18:13:13;6.22;;;2.63;;
67675;SDS011;54456;48.436;10.028;2022-09-17T18:14:43;6.27;;;2.30;;
67675;SDS011;54456;48.436;10.028;2022-09-17T18:16:14;6.35;;;2.38;;
67675;SDS011;54456;48.436;10.028;2022-09-17T18:17:45;6.78;;;2.15;;
67675;SDS011;54456;48.436;10.028;2022-09-17T18:19:19;9.45;;;2.50;;
67675;SDS011;54456;48.436;10.028;2022-09-17T18:20:50;6.63;;;2.47;;
67675;SDS011;54456;48.436;10.028;2022-09-17T18:22:22;5.55;;;2.28;;
67675;SDS011;54456;48.436;10.028;2022-09-17T18:23:53;4.97;;;2.25;;
67675;SDS011;54456;48.436;10.028;2022-09-17T18:25:23;6.35;;;2.45;;
67675;SDS011;54456;48.436;10.028;2022-09-17T18:26:53;6.45;;;1.95;;
67675;SDS011;54456;48.436;10.028;2022-09-17T18:28:24;6.72;;;2.40;;
67675;SDS011;54456;48.436;10.028;2022-09-17T18:29:59;8.02;;;2.40;;
67675;SDS011;54456;48.436;10.028;2022-09-17T18:31:30;7.68;;;2.13;;
67675;SDS011;54456;48.436;10.028;2022-09-17T18:33:01;7.90;;;2.40;;
67675;SDS011;54456;48.436;10.028;2022-09-17T18:34:31;7.40;;;2.42;;
67675;SDS011;54456;48.436;10.028;2022-09-17T18:36:02;6.35;;;2.35;;
67675;SDS011;54456;48.436;10.028;2022-09-17T18:37:34;7.03;;;2.33;;
67675;SDS011;54456;48.436;10.028;2022-09-17T18:39:05;7.28;;;2.53;;
67675;SDS011;54456;48.436;10.028;2022-09-17T18:40:36;7.35;;;2.42;;
67675;SDS011;54456;48.436;10.028;2022-09-17T18:42:07;7.27;;;2.60;;
67675;SDS011;54456;48.436;10.028;2022-09-17T18:43:38;6.75;;;2.53;;
67675;SDS011;54456;48.436;10.028;2022-09-17T18:45:08;9.95;;;2.80;;
67675;SDS011;54456;48.436;10.028;2022-09-17T18:46:39;7.80;;;3.45;;
67675;SDS011;54456;48.436;10.028;2022-09-17T18:48:11;7.72;;;2.60;;
67675;SDS011;54456;48.436;10.028;2022-09-17T18:49:41;5.57;;;2.63;;
67675;SDS011;54456;48.436;10.028;2022-09-17T18:51:12;9.50;;;2.78;;
67675;SDS011;54456;48.436;10.028;2022-09-17T18:52:45;9.05;;;2.63;;
67675;SDS011;54456;48.436;10.028;2022-09-17T18:54:16;7.18;;;2.80;;
67675;SDS011;54456;48.436;10.028;2022-09-17T18:55:46;8.38;;;3.05;;
67675;SDS011;54456;48.436;10.028;2022-09-17T18:57:16;7.67;;;3.10;;
67675;SDS011;54456;48.436;10.028;2022-09-17T18:58:48;11.93;;;3.50;;
67675;SDS011;54456;48.436;10.028;2022-09-17T19:00:20;8.73;;;2.92;;
67675;SDS011;54456;48.436;10.028;2022-09-17T19:01:50;7.03;;;2.58;;
67675;SDS011;54456;48.436;10.028;2022-09-17T19:03:21;7.88;;;2.58;;
67675;SDS011;54456;48.436;10.028;2022-09-17T19:04:51;8.25;;;3.03;;
67675;SDS011;54456;48.436;10.028;2022-09-17T19:06:22;9.30;;;3.15;;
67675;SDS011;54456;48.436;10.028;2022-09-17T19:07:53;9.25;;;2.90;;
67675;SDS011;54456;48.436;10.028;2022-09-17T19:09:23;9.20;;;2.83;;
67675;SDS011;54456;48.436;10.028;2022-09-17T19:10:54;7.05;;;2.28;;
67675;SDS011;54456;48.436;10.028;2022-09-17T19:12:25;7.18;;;1.90;;
67675;SDS011;54456;48.436;10.028;2022-09-17T19:13:55;4.75;;;1.50;;
67675;SDS011;54456;48.436;10.028;2022-09-17T19:15:25;5.10;;;1.60;;
67675;SDS011;54456;48.436;10.028;2022-09-17T19:16:56;5.53;;;2.00;;
67675;SDS011;54456;48.436;10.028;2022-09-17T19:18:26;3.55;;;1.42;;
67675;SDS011;54456;48.436;10.028;2022-09-17T19:19:57;4.97;;;1.52;;
67675;SDS011;54456;48.436;10.028;2022-09-17T19:21:27;7.20;;;2.07;;
67675;SDS011;54456;48.436;10.028;2022-09-17T19:22:58;5.40;;;1.70;;
67675;SDS011;54456;48.436;10.028;2022-09-17T19:24:28;6.13;;;2.00;;
67675;SDS011;54456;48.436;10.028;2022-09-17T19:26:05;6.88;;;1.85;;
67675;SDS011;54456;48.436;10.028;2022-09-17T19:27:36;6.78;;;2.03;;
67675;SDS011;54456;48.436;10.028;2022-09-17T19:29:07;6.05;;;2.05;;